createdAt,value
2017-11-29T00:00:28.360Z,3.80
2017-11-29T00:02:54.749Z,3.80
2017-11-29T00:05:21.883Z,3.70
2017-11-29T00:07:49.051Z,3.70
2017-11-29T00:10:16.230Z,3.70
2017-11-29T00:12:43.391Z,3.80
2017-11-29T00:15:10.530Z,3.80
2017-11-29T00:17:36.948Z,3.80
2017-11-29T00:20:04.159Z,3.90
2017-11-29T00:22:31.340Z,3.90
2017-11-29T00:24:58.456Z,3.90
2017-11-29T00:27:24.840Z,3.90
2017-11-29T00:29:51.231Z,3.90
2017-11-29T00:32:17.547Z,3.90
2017-11-29T00:34:43.930Z,4.00
2017-11-29T00:37:10.351Z,3.90
2017-11-29T00:39:36.719Z,3.90
2017-11-29T00:42:03.210Z,3.90
2017-11-29T00:44:30.368Z,3.70
2017-11-29T00:46:56.720Z,3.70
2017-11-29T00:49:23.864Z,3.50
2017-11-29T00:51:50.214Z,3.50
2017-11-29T00:54:16.549Z,3.50
2017-11-29T00:56:42.858Z,3.40
2017-11-29T00:59:09.195Z,3.40
2017-11-29T01:01:35.498Z,3.40
2017-11-29T01:04:01.791Z,3.30
2017-11-29T01:06:28.102Z,3.20
2017-11-29T01:08:54.383Z,3.20
2017-11-29T01:11:20.654Z,3.20
2017-11-29T01:13:46.920Z,3.20
2017-11-29T01:16:13.927Z,3.00
2017-11-29T01:18:40.176Z,3.00
2017-11-29T01:21:06.453Z,3.00
2017-11-29T01:23:32.720Z,2.90
2017-11-29T01:25:59.042Z,2.90
2017-11-29T01:28:26.030Z,2.80
2017-11-29T01:30:53.036Z,2.80
2017-11-29T01:33:19.281Z,2.80
2017-11-29T01:35:45.570Z,2.80
2017-11-29T01:38:11.834Z,2.70
2017-11-29T01:40:38.098Z,2.70
2017-11-29T01:43:05.110Z,2.60
2017-11-29T01:45:31.387Z,2.60
2017-11-29T01:47:57.674Z,2.70
2017-11-29T01:50:23.960Z,2.70
2017-11-29T01:52:50.228Z,2.60
2017-11-29T01:55:16.510Z,2.60
2017-11-29T01:57:42.825Z,2.60
2017-11-29T02:00:09.912Z,2.80
2017-11-29T02:02:36.168Z,2.70
2017-11-29T02:05:02.466Z,2.80
2017-11-29T02:07:28.717Z,2.90
2017-11-29T02:09:54.985Z,2.90
2017-11-29T02:12:21.973Z,3.00
2017-11-29T02:14:48.248Z,3.00
2017-11-29T02:17:14.509Z,3.00
2017-11-29T02:19:40.805Z,3.10
2017-11-29T02:22:07.110Z,3.00
2017-11-29T02:24:33.439Z,3.10
2017-11-29T02:27:00.481Z,3.10
2017-11-29T02:29:26.773Z,3.10
2017-11-29T02:31:53.777Z,3.00
2017-11-29T02:34:20.066Z,3.00
2017-11-29T02:36:46.321Z,3.00
2017-11-29T02:39:12.622Z,3.00
2017-11-29T02:41:51.221Z,3.00
2017-11-29T02:44:18.271Z,2.80
2017-11-29T02:46:44.566Z,2.80
2017-11-29T02:49:10.884Z,2.70
2017-11-29T02:51:37.172Z,2.70
2017-11-29T02:54:03.491Z,2.70
2017-11-29T02:56:30.567Z,2.60
2017-11-29T02:58:56.921Z,2.60
2017-11-29T03:01:23.956Z,2.60
2017-11-29T03:03:50.246Z,2.60
2017-11-29T03:06:17.294Z,2.60
2017-11-29T03:08:44.345Z,2.60
2017-11-29T03:11:11.370Z,2.60
2017-11-29T03:13:37.662Z,2.60
2017-11-29T03:16:03.950Z,2.70
2017-11-29T03:18:30.213Z,2.70
2017-11-29T03:20:56.502Z,2.60
2017-11-29T03:23:23.498Z,2.60
2017-11-29T03:25:49.770Z,2.60
2017-11-29T03:28:16.777Z,2.60
2017-11-29T03:30:43.023Z,2.60
2017-11-29T03:33:09.320Z,2.50
2017-11-29T03:35:35.579Z,2.40
2017-11-29T03:38:01.853Z,2.50
2017-11-29T03:40:28.113Z,2.40
2017-11-29T03:42:54.393Z,2.50
2017-11-29T03:45:21.395Z,2.40
2017-11-29T03:47:47.696Z,2.40
2017-11-29T03:50:13.942Z,2.40
2017-11-29T03:52:40.209Z,2.40
2017-11-29T03:55:06.458Z,2.30
2017-11-29T03:57:33.470Z,2.30
2017-11-29T03:59:59.734Z,2.20
2017-11-29T04:02:26.726Z,2.10
2017-11-29T04:04:53.011Z,2.10
2017-11-29T04:07:20.065Z,2.20
2017-11-29T04:09:47.096Z,2.20
2017-11-29T04:12:14.150Z,2.30
2017-11-29T04:14:41.199Z,2.30
2017-11-29T04:17:08.210Z,2.30
2017-11-29T04:19:34.478Z,2.30
2017-11-29T04:22:00.805Z,2.30
2017-11-29T04:24:27.805Z,2.30
2017-11-29T04:26:54.084Z,2.30
2017-11-29T04:29:20.448Z,2.30
2017-11-29T04:31:46.758Z,2.20
2017-11-29T04:34:13.054Z,2.20
2017-11-29T04:36:39.305Z,2.20
2017-11-29T04:39:05.614Z,2.10
2017-11-29T04:41:31.862Z,2.10
2017-11-29T04:43:58.906Z,2.10
2017-11-29T04:46:25.911Z,2.10
2017-11-29T04:48:52.201Z,2.10
2017-11-29T04:51:18.507Z,2.10
2017-11-29T04:53:45.522Z,2.00
2017-11-29T04:56:11.879Z,2.00
2017-11-29T04:58:38.977Z,2.00
2017-11-29T05:01:05.316Z,2.00
2017-11-29T05:03:31.643Z,2.10
2017-11-29T05:05:57.988Z,2.10
2017-11-29T05:08:24.278Z,2.00
2017-11-29T05:10:50.580Z,2.10
2017-11-29T05:13:17.214Z,2.00
2017-11-29T05:15:43.529Z,2.00
2017-11-29T05:18:09.824Z,2.00
2017-11-29T05:20:36.187Z,1.90
2017-11-29T05:23:02.508Z,1.90
2017-11-29T05:25:28.857Z,2.00
2017-11-29T05:27:55.154Z,2.00
2017-11-29T05:30:21.473Z,2.10
2017-11-29T05:32:47.793Z,2.10
2017-11-29T05:35:14.124Z,2.20
2017-11-29T05:37:41.133Z,2.20
2017-11-29T05:40:07.459Z,2.20
2017-11-29T05:42:33.758Z,2.20
2017-11-29T05:45:00.075Z,2.20
2017-11-29T05:47:26.372Z,2.10
2017-11-29T05:49:52.699Z,2.20
2017-11-29T05:52:18.993Z,2.30
2017-11-29T05:54:45.300Z,2.30
2017-11-29T05:57:11.605Z,2.40
2017-11-29T05:59:38.655Z,2.40
2017-11-29T06:02:05.721Z,2.40
2017-11-29T06:04:32.028Z,2.50
2017-11-29T06:06:59.102Z,2.50
2017-11-29T06:09:25.410Z,2.50
2017-11-29T06:11:52.427Z,2.50
2017-11-29T06:14:18.731Z,2.50
2017-11-29T06:16:45.056Z,2.50
2017-11-29T06:19:11.350Z,2.60
2017-11-29T06:21:38.413Z,2.70
2017-11-29T06:24:04.774Z,2.60
2017-11-29T06:26:31.228Z,2.60
2017-11-29T06:28:57.538Z,2.60
2017-11-29T06:31:23.884Z,2.50
2017-11-29T06:33:50.157Z,2.50
2017-11-29T06:36:17.179Z,2.50
2017-11-29T06:38:43.442Z,2.50
2017-11-29T06:41:09.720Z,2.60
2017-11-29T06:43:35.999Z,2.70
2017-11-29T06:46:02.273Z,2.80
2017-11-29T06:48:28.519Z,2.80
2017-11-29T06:50:55.525Z,2.90
2017-11-29T06:53:21.783Z,2.90
2017-11-29T06:55:48.082Z,2.90
2017-11-29T06:58:14.362Z,2.80
2017-11-29T07:00:40.643Z,2.80
2017-11-29T07:03:06.925Z,2.70
2017-11-29T07:05:33.216Z,2.60
2017-11-29T07:07:59.484Z,2.60
2017-11-29T07:10:25.767Z,2.60
2017-11-29T07:12:52.016Z,2.70
2017-11-29T07:15:18.298Z,2.70
2017-11-29T07:17:44.566Z,2.70
2017-11-29T07:20:10.834Z,2.80
2017-11-29T07:22:37.818Z,3.00
2017-11-29T07:25:04.156Z,2.90
2017-11-29T07:27:30.413Z,3.00
2017-11-29T07:29:56.709Z,2.90
2017-11-29T07:32:22.987Z,2.90
2017-11-29T07:34:49.259Z,2.80
2017-11-29T07:37:15.513Z,2.80
2017-11-29T07:39:41.795Z,2.80
2017-11-29T07:42:08.057Z,2.80
2017-11-29T07:44:34.340Z,2.80
2017-11-29T07:47:00.604Z,2.80
2017-11-29T07:49:26.849Z,2.70
2017-11-29T07:51:53.097Z,2.80
2017-11-29T07:54:19.411Z,2.70
2017-11-29T07:56:45.661Z,2.80
2017-11-29T07:59:11.959Z,2.80
2017-11-29T08:01:38.251Z,2.70
2017-11-29T08:04:04.505Z,2.80
2017-11-29T08:06:30.804Z,2.80
2017-11-29T08:08:57.079Z,2.80
2017-11-29T08:11:23.337Z,2.90
2017-11-29T08:13:49.602Z,2.80
2017-11-29T08:16:16.610Z,2.90
2017-11-29T08:18:42.895Z,2.90
2017-11-29T08:21:09.179Z,2.80
2017-11-29T08:23:35.498Z,2.80
2017-11-29T08:26:01.799Z,2.80
2017-11-29T08:28:28.132Z,2.90
2017-11-29T08:30:54.462Z,3.00
2017-11-29T08:33:20.800Z,2.90
2017-11-29T08:35:47.114Z,2.90
2017-11-29T08:38:13.435Z,3.00
2017-11-29T08:40:40.490Z,3.10
2017-11-29T08:43:06.794Z,3.10
2017-11-29T08:45:33.069Z,3.20
2017-11-29T08:47:59.385Z,3.10
2017-11-29T08:50:25.755Z,3.10
2017-11-29T08:52:52.800Z,3.30
2017-11-29T08:55:19.094Z,3.30
2017-11-29T08:57:45.397Z,3.40
2017-11-29T09:00:11.709Z,3.40
2017-11-29T09:02:38.024Z,3.30
2017-11-29T09:05:04.337Z,3.30
2017-11-29T09:07:30.625Z,3.20
2017-11-29T09:09:57.630Z,3.30
2017-11-29T09:12:23.952Z,3.20
2017-11-29T09:14:50.221Z,3.20
2017-11-29T09:17:16.517Z,3.20
2017-11-29T09:19:42.790Z,3.30
2017-11-29T09:22:09.818Z,3.50
2017-11-29T09:24:36.839Z,3.60
2017-11-29T09:27:03.151Z,3.60
2017-11-29T09:29:29.470Z,3.70
2017-11-29T09:31:55.750Z,3.80
2017-11-29T09:34:22.156Z,3.90
2017-11-29T09:36:48.496Z,4.00
2017-11-29T09:39:14.802Z,4.20
2017-11-29T09:41:41.104Z,4.30
2017-11-29T09:44:08.160Z,4.40
2017-11-29T09:46:35.216Z,4.30
2017-11-29T09:49:01.497Z,4.30
2017-11-29T09:51:27.817Z,4.30
2017-11-29T09:53:54.111Z,4.50
2017-11-29T09:56:20.432Z,4.70
2017-11-29T09:58:46.782Z,4.80
2017-11-29T10:01:13.075Z,4.80
2017-11-29T10:03:40.181Z,5.00
2017-11-29T10:06:07.235Z,5.20
2017-11-29T10:08:33.517Z,5.20
2017-11-29T10:11:00.560Z,5.30
2017-11-29T10:13:27.588Z,5.20
2017-11-29T10:15:53.891Z,5.20
2017-11-29T10:18:20.201Z,5.20
2017-11-29T10:20:46.502Z,5.30
2017-11-29T10:23:12.799Z,5.30
2017-11-29T10:25:39.128Z,5.40
2017-11-29T10:28:05.423Z,5.60
2017-11-29T10:30:32.507Z,5.80
2017-11-29T10:32:58.779Z,5.80
2017-11-29T10:35:25.087Z,5.90
2017-11-29T10:37:52.119Z,5.80
2017-11-29T10:40:18.408Z,5.80
2017-11-29T10:42:44.683Z,5.60
2017-11-29T10:45:10.978Z,5.60
2017-11-29T10:47:37.245Z,5.70
2017-11-29T10:50:03.574Z,5.90
2017-11-29T10:52:29.874Z,5.80
2017-11-29T10:54:56.176Z,6.00
2017-11-29T10:57:22.494Z,6.10
2017-11-29T10:59:48.781Z,6.20
2017-11-29T11:02:15.050Z,6.40
2017-11-29T11:04:41.337Z,6.60
2017-11-29T11:07:07.616Z,6.80
2017-11-29T11:09:33.916Z,6.70
2017-11-29T11:12:00.945Z,6.40
2017-11-29T11:14:27.234Z,6.40
2017-11-29T11:16:53.509Z,6.30
2017-11-29T11:19:19.822Z,6.10
2017-11-29T11:21:46.108Z,6.00
2017-11-29T11:24:12.398Z,6.00
2017-11-29T11:26:38.719Z,6.10
2017-11-29T11:29:05.026Z,6.10
2017-11-29T11:31:31.311Z,6.00
2017-11-29T11:33:57.709Z,6.00
2017-11-29T11:36:24.030Z,6.00
2017-11-29T11:38:50.368Z,6.10
2017-11-29T11:41:16.695Z,6.20
2017-11-29T11:43:43.013Z,6.10
2017-11-29T11:46:09.281Z,6.10
2017-11-29T11:48:35.595Z,6.20
2017-11-29T11:51:03.018Z,6.30
2017-11-29T11:53:29.330Z,6.40
2017-11-29T11:55:55.595Z,6.40
2017-11-29T11:58:21.922Z,6.30
2017-11-29T12:00:48.208Z,5.90
2017-11-29T12:03:15.249Z,5.80
2017-11-29T12:05:42.313Z,5.90
2017-11-29T12:08:08.610Z,5.80
2017-11-29T12:10:34.902Z,5.90
2017-11-29T12:13:01.226Z,5.80
2017-11-29T12:15:27.514Z,5.80
2017-11-29T12:17:54.590Z,5.80
2017-11-29T12:20:20.885Z,5.80
2017-11-29T12:22:47.193Z,5.90
2017-11-29T12:25:13.482Z,6.00
2017-11-29T12:27:39.777Z,6.10
2017-11-29T12:30:06.057Z,6.20
2017-11-29T12:32:32.363Z,6.10
2017-11-29T12:34:58.646Z,6.00
2017-11-29T12:37:24.919Z,6.00
2017-11-29T12:39:51.203Z,6.20
2017-11-29T12:42:17.520Z,6.30
2017-11-29T12:44:43.804Z,6.20
2017-11-29T12:47:10.863Z,6.20
2017-11-29T12:49:49.524Z,6.20
2017-11-29T12:52:15.851Z,6.10
2017-11-29T12:54:42.137Z,6.10
2017-11-29T12:57:08.469Z,6.20
2017-11-29T12:59:34.751Z,6.10
2017-11-29T13:02:01.075Z,5.90
2017-11-29T13:04:27.388Z,5.90
2017-11-29T13:06:53.703Z,5.90
2017-11-29T13:09:20.034Z,5.80
2017-11-29T13:11:46.373Z,5.80
2017-11-29T13:14:12.667Z,5.70
2017-11-29T13:16:39.730Z,5.80
2017-11-29T13:19:06.002Z,5.80
2017-11-29T13:21:32.336Z,5.90
2017-11-29T13:23:58.633Z,6.00
2017-11-29T13:26:25.227Z,5.80
2017-11-29T13:28:51.505Z,5.90
2017-11-29T13:31:17.851Z,5.80
2017-11-29T13:33:44.155Z,5.90
2017-11-29T13:36:10.448Z,5.80
2017-11-29T13:38:36.751Z,5.80
2017-11-29T13:41:03.062Z,5.80
2017-11-29T13:43:29.362Z,5.70
2017-11-29T13:45:56.421Z,5.50
2017-11-29T13:48:22.711Z,5.50
2017-11-29T13:50:49.036Z,5.50
2017-11-29T13:53:15.336Z,5.50
2017-11-29T13:55:41.641Z,5.60
2017-11-29T13:58:07.944Z,5.60
2017-11-29T14:00:34.985Z,5.60
2017-11-29T14:03:01.268Z,5.60
2017-11-29T14:05:27.570Z,5.60
2017-11-29T14:07:53.857Z,5.60
2017-11-29T14:10:20.137Z,5.50
2017-11-29T14:12:46.443Z,5.40
2017-11-29T14:15:13.437Z,5.40
2017-11-29T14:17:39.696Z,5.40
2017-11-29T14:20:05.970Z,5.20
2017-11-29T14:22:32.225Z,5.00
2017-11-29T14:24:58.493Z,4.80
2017-11-29T14:27:24.774Z,4.80
2017-11-29T14:29:51.030Z,4.70
2017-11-29T14:32:17.288Z,4.70
2017-11-29T14:34:43.554Z,4.80
2017-11-29T14:37:09.852Z,4.70
2017-11-29T14:39:36.870Z,4.60
2017-11-29T14:42:03.204Z,4.60
2017-11-29T14:44:29.567Z,4.60
2017-11-29T14:46:56.584Z,4.50
2017-11-29T14:49:22.847Z,4.40
2017-11-29T14:51:49.882Z,4.30
2017-11-29T14:54:16.885Z,4.20
2017-11-29T14:56:43.233Z,4.20
2017-11-29T14:59:09.569Z,4.10
2017-11-29T15:01:35.829Z,4.10
2017-11-29T15:04:02.172Z,4.00
2017-11-29T15:06:28.452Z,3.90
2017-11-29T15:08:54.750Z,3.90
2017-11-29T15:11:21.823Z,3.70
2017-11-29T15:13:48.109Z,3.60
2017-11-29T15:16:15.088Z,3.40
2017-11-29T15:18:41.350Z,3.40
2017-11-29T15:21:07.606Z,3.40
2017-11-29T15:23:34.649Z,3.40
2017-11-29T15:26:01.653Z,3.40
2017-11-29T15:28:27.935Z,3.40
2017-11-29T15:30:54.235Z,3.50
2017-11-29T15:33:20.567Z,3.50
2017-11-29T15:35:46.868Z,3.50
2017-11-29T15:38:13.163Z,3.50
2017-11-29T15:40:39.449Z,3.50
2017-11-29T15:43:05.785Z,3.50
2017-11-29T15:45:32.089Z,3.50
2017-11-29T15:47:58.361Z,3.50
2017-11-29T15:50:25.406Z,3.60
2017-11-29T15:52:52.462Z,3.60
2017-11-29T15:55:19.506Z,3.60
2017-11-29T15:57:46.559Z,3.60
2017-11-29T16:00:13.605Z,3.50
2017-11-29T16:02:40.651Z,3.30
2017-11-29T16:05:07.741Z,3.30
2017-11-29T16:07:34.060Z,3.20
2017-11-29T16:10:00.403Z,3.10
2017-11-29T16:12:26.848Z,3.10
2017-11-29T16:14:53.236Z,3.00
2017-11-29T16:17:20.264Z,2.70
2017-11-29T16:19:47.290Z,2.60
2017-11-29T16:22:13.570Z,2.60
2017-11-29T16:24:39.845Z,2.60
2017-11-29T16:27:06.146Z,2.50
2017-11-29T16:29:32.463Z,2.60
2017-11-29T16:31:58.778Z,2.70
2017-11-29T16:34:25.816Z,2.70
2017-11-29T16:36:52.849Z,2.70
2017-11-29T16:39:19.169Z,2.70
2017-11-29T16:41:45.521Z,2.70
2017-11-29T16:44:12.529Z,2.70
2017-11-29T16:46:38.821Z,2.70
2017-11-29T16:49:05.140Z,2.70
2017-11-29T16:51:32.178Z,2.80
2017-11-29T16:53:59.216Z,2.80
2017-11-29T16:56:25.486Z,2.80
2017-11-29T16:58:51.802Z,2.80
2017-11-29T17:01:18.087Z,2.70
2017-11-29T17:03:44.413Z,2.60
2017-11-29T17:06:10.718Z,2.50
2017-11-29T17:08:37.062Z,2.40
2017-11-29T17:11:03.404Z,2.10
2017-11-29T17:13:29.762Z,2.00
2017-11-29T17:15:56.156Z,2.10
2017-11-29T17:18:22.515Z,2.10
2017-11-29T17:20:48.792Z,2.00
2017-11-29T17:23:15.096Z,1.90
2017-11-29T17:25:42.155Z,1.50
2017-11-29T17:28:08.467Z,1.50
2017-11-29T17:30:35.500Z,1.40
2017-11-29T17:33:01.818Z,1.40
2017-11-29T17:35:28.908Z,1.40
2017-11-29T17:37:55.226Z,1.30
2017-11-29T17:40:22.283Z,1.30
2017-11-29T17:42:48.594Z,1.20
2017-11-29T17:45:15.656Z,1.20
2017-11-29T17:47:42.738Z,1.20
2017-11-29T17:50:09.080Z,1.10
2017-11-29T17:52:35.361Z,1.20
2017-11-29T17:55:02.392Z,1.20
2017-11-29T17:57:28.746Z,1.20
2017-11-29T17:59:55.073Z,1.30
2017-11-29T18:02:21.441Z,1.30
2017-11-29T18:04:47.764Z,1.30
2017-11-29T18:07:14.099Z,1.20
2017-11-29T18:09:40.396Z,1.20
2017-11-29T18:12:07.478Z,1.10
2017-11-29T18:14:33.802Z,1.10
2017-11-29T18:17:00.117Z,1.10
2017-11-29T18:19:27.140Z,1.00
2017-11-29T18:21:53.446Z,1.00
2017-11-29T18:24:19.809Z,1.00
2017-11-29T18:26:46.169Z,0.90
2017-11-29T18:29:13.184Z,0.80
2017-11-29T18:31:39.507Z,0.80
2017-11-29T18:34:05.784Z,0.70
2017-11-29T18:36:32.894Z,0.50
2017-11-29T18:38:59.157Z,0.50
2017-11-29T18:41:25.458Z,0.40
2017-11-29T18:43:51.772Z,0.40
2017-11-29T18:46:18.119Z,0.30
2017-11-29T18:48:44.471Z,0.30
2017-11-29T18:51:10.748Z,0.30
2017-11-29T18:53:37.082Z,0.30
2017-11-29T18:56:03.366Z,0.40
2017-11-29T18:58:29.674Z,0.40
2017-11-29T19:00:55.987Z,0.40
2017-11-29T19:03:22.324Z,0.40
2017-11-29T19:05:48.657Z,0.40
2017-11-29T19:08:15.725Z,0.30
2017-11-29T19:10:42.037Z,0.30
2017-11-29T19:13:09.098Z,0.00
2017-11-29T19:15:36.333Z,0.00
2017-11-29T19:18:03.393Z,0.00
2017-11-29T19:20:30.452Z,-0.10
2017-11-29T19:22:56.726Z,-0.10
2017-11-29T19:25:23.021Z,-0.20
2017-11-29T19:27:49.315Z,-0.20
2017-11-29T19:30:15.664Z,-0.30
2017-11-29T19:32:42.715Z,-0.20
2017-11-29T19:35:09.019Z,-0.20
2017-11-29T19:37:35.526Z,-0.10
2017-11-29T19:40:01.824Z,-0.10
2017-11-29T19:42:28.108Z,-0.10
2017-11-29T19:44:54.382Z,-0.20
2017-11-29T19:47:20.686Z,-0.10
2017-11-29T19:49:46.986Z,-0.10
2017-11-29T19:52:13.571Z,-0.10
2017-11-29T19:54:39.821Z,0.00
2017-11-29T19:57:06.149Z,0.00
2017-11-29T19:59:33.200Z,-0.10
2017-11-29T20:01:59.481Z,-0.10
2017-11-29T20:04:25.751Z,-0.10
2017-11-29T20:06:52.123Z,-0.10
2017-11-29T20:09:18.408Z,-0.10
2017-11-29T20:11:44.709Z,-0.10
2017-11-29T20:14:11.752Z,-0.20
2017-11-29T20:16:38.074Z,-0.20
2017-11-29T20:19:04.381Z,-0.20
2017-11-29T20:21:30.695Z,-0.10
2017-11-29T20:23:57.030Z,-0.10
2017-11-29T20:26:23.384Z,0.00
2017-11-29T20:28:49.661Z,0.00
2017-11-29T20:31:15.999Z,0.00
2017-11-29T20:33:42.301Z,0.00
2017-11-29T20:36:09.338Z,0.00
2017-11-29T20:38:35.661Z,0.00
2017-11-29T20:41:01.964Z,-0.10
2017-11-29T20:43:28.259Z,-0.20
2017-11-29T20:45:54.517Z,-0.20
2017-11-29T20:48:20.811Z,-0.30
2017-11-29T20:50:47.134Z,-0.30
2017-11-29T20:53:14.183Z,-0.30
2017-11-29T20:55:41.214Z,-0.30
2017-11-29T20:58:07.589Z,-0.30
2017-11-29T21:00:33.876Z,-0.20
2017-11-29T21:03:00.158Z,-0.20
2017-11-29T21:05:26.468Z,-0.20
2017-11-29T21:07:52.769Z,-0.10
2017-11-29T21:10:19.784Z,0.00
2017-11-29T21:12:46.099Z,0.00
2017-11-29T21:15:12.387Z,0.00
2017-11-29T21:17:39.487Z,0.00
2017-11-29T21:20:05.744Z,0.00
2017-11-29T21:22:32.028Z,0.00
2017-11-29T21:24:58.324Z,0.10
2017-11-29T21:27:25.388Z,0.10
2017-11-29T21:29:51.645Z,0.10
2017-11-29T21:32:17.918Z,0.10
2017-11-29T21:34:44.208Z,0.10
2017-11-29T21:37:10.511Z,0.10
2017-11-29T21:39:36.812Z,0.10
2017-11-29T21:42:03.134Z,0.20
2017-11-29T21:44:29.434Z,0.30
2017-11-29T21:46:55.735Z,0.20
2017-11-29T21:49:22.024Z,0.10
2017-11-29T21:51:48.745Z,0.10
2017-11-29T21:54:15.040Z,0.00
2017-11-29T21:56:41.363Z,0.00
2017-11-29T21:59:07.916Z,0.00
2017-11-29T22:01:34.197Z,0.00
2017-11-29T22:04:01.217Z,0.00
2017-11-29T22:06:27.494Z,-0.10
2017-11-29T22:08:53.741Z,-0.10
2017-11-29T22:11:20.018Z,0.00
2017-11-29T22:13:46.286Z,0.00
2017-11-29T22:16:12.551Z,-0.10
2017-11-29T22:18:39.002Z,-0.10
2017-11-29T22:21:05.334Z,0.00
2017-11-29T22:23:31.737Z,0.00
2017-11-29T22:25:58.938Z,-0.10
2017-11-29T22:28:25.261Z,-0.10
2017-11-29T22:30:51.578Z,-0.10
2017-11-29T22:33:17.899Z,-0.20
2017-11-29T22:35:44.164Z,-0.20
2017-11-29T22:38:11.207Z,-0.20
2017-11-29T22:40:37.473Z,-0.20
2017-11-29T22:43:03.771Z,-0.20
2017-11-29T22:45:30.017Z,-0.20
2017-11-29T22:47:57.030Z,-0.20
2017-11-29T22:50:23.274Z,-0.20
2017-11-29T22:52:49.547Z,-0.20
2017-11-29T22:55:15.809Z,-0.20
2017-11-29T22:57:42.121Z,-0.10
2017-11-29T23:00:08.412Z,0.00
2017-11-29T23:02:35.431Z,0.00
2017-11-29T23:05:01.679Z,0.00
2017-11-29T23:07:28.703Z,0.10
2017-11-29T23:09:54.966Z,0.10
2017-11-29T23:12:21.258Z,0.20
2017-11-29T23:14:47.627Z,0.30
2017-11-29T23:17:13.927Z,0.30
2017-11-29T23:19:40.209Z,0.40
2017-11-29T23:22:06.540Z,0.40
2017-11-29T23:24:32.859Z,0.40
2017-11-29T23:26:59.178Z,0.40
2017-11-29T23:29:25.450Z,0.50
2017-11-29T23:31:51.737Z,0.40
2017-11-29T23:34:18.059Z,0.40
2017-11-29T23:36:45.046Z,0.40
2017-11-29T23:39:11.350Z,0.40
2017-11-29T23:41:37.665Z,0.40
2017-11-29T23:44:04.700Z,0.50
2017-11-29T23:46:30.971Z,0.50
2017-11-29T23:48:57.262Z,0.50
2017-11-29T23:51:24.306Z,0.50
2017-11-29T23:53:50.617Z,0.40
2017-11-29T23:56:16.892Z,0.40
2017-11-29T23:58:43.212Z,0.40
